createdAt,value
2023-02-13T00:00:20.612Z,10.2
2023-02-13T00:01:23.332Z,10.2
2023-02-13T00:02:26.800Z,10.2
2023-02-13T00:03:31.875Z,10.2
2023-02-13T00:04:35.264Z,10.2
2023-02-13T00:05:38.450Z,10.2
2023-02-13T00:06:41.866Z,10.2
2023-02-13T00:07:45.190Z,10.2
2023-02-13T00:08:48.087Z,10.1
2023-02-13T00:09:51.105Z,10.1
2023-02-13T00:10:55.828Z,10.2
2023-02-13T00:12:00.666Z,10.2
2023-02-13T00:13:04.391Z,10.1
2023-02-13T00:14:07.634Z,10.1
2023-02-13T00:15:10.805Z,10.1
2023-02-13T00:16:14.447Z,10.1
2023-02-13T00:17:17.698Z,10.2
2023-02-13T00:18:21.967Z,10.1
2023-02-13T00:19:24.504Z,10.1
2023-02-13T00:20:28.122Z,10.1
2023-02-13T00:21:31.843Z,10.1
2023-02-13T00:22:35.933Z,10.1
2023-02-13T00:23:39.000Z,10.1
2023-02-13T00:24:42.855Z,10.1
2023-02-13T00:25:46.954Z,10.1
2023-02-13T00:26:50.311Z,10.1
2023-02-13T00:27:53.534Z,10.1
2023-02-13T00:28:56.283Z,10.1
2023-02-13T00:29:58.568Z,10.1
2023-02-13T00:31:03.034Z,10.1
2023-02-13T00:33:14.322Z,10.1
2023-02-13T00:34:17.074Z,10.1
2023-02-13T00:35:20.759Z,10.1
2023-02-13T00:36:23.984Z,10
2023-02-13T00:37:27.143Z,10
2023-02-13T00:38:31.182Z,10
2023-02-13T00:39:34.819Z,10
2023-02-13T00:40:37.932Z,10
2023-02-13T00:41:40.823Z,10
2023-02-13T00:42:43.987Z,10
2023-02-13T00:43:47.322Z,10
2023-02-13T00:44:50.670Z,10
2023-02-13T00:45:53.608Z,10
2023-02-13T00:46:57.669Z,10
2023-02-13T00:48:00.744Z,10
2023-02-13T00:49:02.975Z,10
2023-02-13T00:50:05.606Z,10
2023-02-13T00:51:09.272Z,10
2023-02-13T00:52:12.073Z,10
2023-02-13T00:53:15.754Z,10
2023-02-13T00:54:18.926Z,10
2023-02-13T00:55:21.907Z,10
2023-02-13T00:56:25.561Z,10
2023-02-13T00:57:28.080Z,10
2023-02-13T00:58:31.574Z,10
2023-02-13T00:59:35.304Z,10
2023-02-13T01:00:38.329Z,10
2023-02-13T01:01:41.882Z,10
2023-02-13T01:02:44.814Z,10
2023-02-13T01:03:47.844Z,10
2023-02-13T01:04:51.137Z,10
2023-02-13T01:05:54.294Z,10
2023-02-13T01:06:57.106Z,10.1
2023-02-13T01:07:59.822Z,10.1
2023-02-13T01:09:03.597Z,10.1
2023-02-13T01:10:07.416Z,10.1
2023-02-13T01:11:11.115Z,10.1
2023-02-13T01:12:14.243Z,10.1
2023-02-13T01:13:17.510Z,10.1
2023-02-13T01:14:20.625Z,10.1
2023-02-13T01:15:23.760Z,10.1
2023-02-13T01:16:27.212Z,10.1
2023-02-13T01:17:30.726Z,10.1
2023-02-13T01:18:33.824Z,10.1
2023-02-13T01:19:37.277Z,10.1
2023-02-13T01:20:39.993Z,10.1
2023-02-13T01:21:43.058Z,10.1
2023-02-13T01:22:46.229Z,10.1
2023-02-13T01:23:49.925Z,10.1
2023-02-13T01:24:52.737Z,10.1
2023-02-13T01:25:56.417Z,10.1
2023-02-13T01:26:59.954Z,10.1
2023-02-13T01:28:02.576Z,10.1
2023-02-13T01:29:05.523Z,10.1
2023-02-13T01:30:08.970Z,10.1
2023-02-13T01:31:13.536Z,10.1
2023-02-13T01:32:17.827Z,10.1
2023-02-13T01:33:21.386Z,10.1
2023-02-13T01:34:25.079Z,10.1
2023-02-13T01:35:28.752Z,10.1
2023-02-13T01:36:31.872Z,10.1
2023-02-13T01:37:34.886Z,10.1
2023-02-13T01:38:37.938Z,10.1
2023-02-13T01:39:41.025Z,10.1
2023-02-13T01:40:44.296Z,10.1
2023-02-13T01:41:47.707Z,10.1
2023-02-13T01:42:50.522Z,10.1
2023-02-13T01:43:53.616Z,10.1
2023-02-13T01:44:56.472Z,10.1
2023-02-13T01:45:59.954Z,10.1
2023-02-13T01:47:03.750Z,10
2023-02-13T01:48:07.118Z,10
2023-02-13T01:49:10.795Z,10
2023-02-13T01:50:13.566Z,10
2023-02-13T01:51:16.646Z,10
2023-02-13T01:52:18.864Z,10
2023-02-13T01:53:21.841Z,10
2023-02-13T01:54:25.296Z,10
2023-02-13T01:55:28.017Z,10
2023-02-13T01:56:30.765Z,10
2023-02-13T01:57:34.471Z,10
2023-02-13T01:58:37.652Z,10
2023-02-13T01:59:40.662Z,10
2023-02-13T02:00:43.998Z,10
2023-02-13T02:01:48.140Z,10
2023-02-13T02:02:52.044Z,10
2023-02-13T02:03:54.993Z,10
2023-02-13T02:04:58.073Z,10
2023-02-13T02:06:01.082Z,10
2023-02-13T02:07:04.423Z,10
2023-02-13T02:08:08.233Z,10
2023-02-13T02:09:10.957Z,10
2023-02-13T02:10:14.079Z,10
2023-02-13T02:11:16.511Z,10
2023-02-13T02:12:19.587Z,10
2023-02-13T02:13:23.379Z,10
2023-02-13T02:14:26.803Z,9.9
2023-02-13T02:15:29.793Z,10
2023-02-13T02:16:32.207Z,10
2023-02-13T02:17:35.603Z,9.9
2023-02-13T02:18:38.995Z,9.9
2023-02-13T02:19:42.082Z,10
2023-02-13T02:20:45.537Z,9.9
2023-02-13T02:21:48.971Z,10
2023-02-13T02:22:52.814Z,9.9
2023-02-13T02:23:55.957Z,9.9
2023-02-13T02:24:58.749Z,9.9
2023-02-13T02:26:01.922Z,9.9
2023-02-13T02:27:05.456Z,9.9
2023-02-13T02:28:08.895Z,9.9
2023-02-13T02:29:12.448Z,9.9
2023-02-13T02:30:15.586Z,9.9
2023-02-13T02:31:18.893Z,9.9
2023-02-13T02:32:21.919Z,9.9
2023-02-13T02:33:25.200Z,9.9
2023-02-13T02:34:28.320Z,9.9
2023-02-13T02:35:31.361Z,9.9
2023-02-13T02:36:33.784Z,9.9
2023-02-13T02:37:36.227Z,9.9
2023-02-13T02:38:38.663Z,9.9
2023-02-13T02:39:41.437Z,9.9
2023-02-13T02:40:44.500Z,9.9
2023-02-13T02:41:47.202Z,9.9
2023-02-13T02:42:49.640Z,9.9
2023-02-13T02:43:52.354Z,10
2023-02-13T02:44:55.928Z,10
2023-02-13T02:45:58.922Z,10
2023-02-13T02:47:02.651Z,10
2023-02-13T02:48:05.996Z,10
2023-02-13T02:49:09.792Z,10
2023-02-13T02:50:12.919Z,10
2023-02-13T02:51:15.972Z,10
2023-02-13T02:52:18.693Z,10
2023-02-13T02:53:22.720Z,10
2023-02-13T02:54:25.985Z,10
2023-02-13T02:55:28.701Z,10
2023-02-13T02:56:31.530Z,10
2023-02-13T02:57:33.964Z,10
2023-02-13T02:58:37.092Z,10
2023-02-13T02:59:40.436Z,10.1
2023-02-13T03:00:44.390Z,10
2023-02-13T03:01:48.048Z,10
2023-02-13T03:02:50.864Z,10
2023-02-13T03:03:54.341Z,10
2023-02-13T03:04:57.634Z,10
2023-02-13T03:06:01.171Z,10.1
2023-02-13T03:07:03.700Z,10
2023-02-13T03:08:06.815Z,10
2023-02-13T03:09:09.614Z,10.1
2023-02-13T03:10:12.686Z,10
2023-02-13T03:11:16.740Z,10
2023-02-13T03:12:19.802Z,10
2023-02-13T03:13:23.213Z,10
2023-02-13T03:14:26.634Z,10
2023-02-13T03:15:30.016Z,10
2023-02-13T03:16:33.892Z,10.1
2023-02-13T03:17:37.471Z,10.1
2023-02-13T03:18:40.190Z,10.1
2023-02-13T03:19:43.848Z,10.1
2023-02-13T03:20:47.587Z,10.1
2023-02-13T03:21:50.698Z,10.1
2023-02-13T03:22:54.057Z,10.1
2023-02-13T03:23:57.045Z,10.1
2023-02-13T03:25:00.336Z,10.1
2023-02-13T03:26:03.613Z,10.1
2023-02-13T03:27:06.697Z,10.1
2023-02-13T03:28:10.645Z,10.1
2023-02-13T03:29:14.501Z,10.1
2023-02-13T03:30:17.472Z,10.1
2023-02-13T03:31:20.664Z,10.1
2023-02-13T03:32:24.932Z,10.1
2023-02-13T03:33:28.352Z,10.1
2023-02-13T03:34:32.066Z,10.1
2023-02-13T03:35:34.867Z,10.1
2023-02-13T03:36:38.522Z,10
2023-02-13T03:37:42.245Z,10
2023-02-13T03:38:45.382Z,10
2023-02-13T03:39:47.891Z,10.1
2023-02-13T03:40:51.193Z,10
2023-02-13T03:41:53.968Z,10
2023-02-13T03:42:57.043Z,10
2023-02-13T03:44:00.250Z,10.1
2023-02-13T03:45:03.601Z,10
2023-02-13T03:46:07.440Z,10.1
2023-02-13T03:47:10.641Z,10.1
2023-02-13T03:48:14.032Z,10.1
2023-02-13T03:49:17.104Z,10.1
2023-02-13T03:50:19.856Z,10
2023-02-13T03:51:23.169Z,10.1
2023-02-13T03:52:27.342Z,10.1
2023-02-13T03:53:30.737Z,10.1
2023-02-13T03:54:33.885Z,10.1
2023-02-13T03:55:37.080Z,10.1
2023-02-13T03:56:40.435Z,10.1
2023-02-13T03:57:43.236Z,10.1
2023-02-13T03:58:46.425Z,10.1
2023-02-13T03:59:49.285Z,10.1
2023-02-13T04:00:52.761Z,10.1
2023-02-13T04:01:56.346Z,10.1
2023-02-13T04:02:59.794Z,10.1
2023-02-13T04:04:03.298Z,10.1
2023-02-13T04:05:06.301Z,10.1
2023-02-13T04:06:09.641Z,10.1
2023-02-13T04:07:13.527Z,10.1
2023-02-13T04:08:16.682Z,10.1
2023-02-13T04:09:20.195Z,10.1
2023-02-13T04:10:23.580Z,10.1
2023-02-13T04:11:26.602Z,10.1
2023-02-13T04:12:30.296Z,10.1
2023-02-13T04:13:33.075Z,10.1
2023-02-13T04:14:36.493Z,10.1
2023-02-13T04:15:39.644Z,10.1
2023-02-13T04:16:43.132Z,10.1
2023-02-13T04:17:46.768Z,10.1
2023-02-13T04:18:49.834Z,10.1
2023-02-13T04:19:53.606Z,10.1
2023-02-13T04:20:57.879Z,10.1
2023-02-13T04:22:01.910Z,10
2023-02-13T04:23:04.054Z,10
2023-02-13T04:24:07.442Z,10
2023-02-13T04:25:10.856Z,10
2023-02-13T04:26:14.324Z,10
2023-02-13T04:27:17.785Z,10
2023-02-13T04:28:20.747Z,10
2023-02-13T04:29:24.609Z,10
2023-02-13T04:30:28.051Z,10
2023-02-13T04:31:32.236Z,10
2023-02-13T04:32:35.785Z,10
2023-02-13T04:33:38.631Z,10
2023-02-13T04:34:41.683Z,10
2023-02-13T04:35:44.596Z,10
2023-02-13T04:36:47.407Z,10
2023-02-13T04:37:50.198Z,10
2023-02-13T04:38:53.013Z,10
2023-02-13T04:39:56.755Z,10
2023-02-13T04:41:00.581Z,10
2023-02-13T04:42:03.694Z,10
2023-02-13T04:43:06.491Z,10
2023-02-13T04:44:09.977Z,10
2023-02-13T04:45:12.774Z,10
2023-02-13T04:46:16.358Z,10
2023-02-13T04:47:19.759Z,10
2023-02-13T04:48:22.720Z,10
2023-02-13T04:49:26.044Z,10
2023-02-13T04:50:28.991Z,10
2023-02-13T04:51:32.665Z,10
2023-02-13T04:52:35.235Z,10
2023-02-13T04:53:38.669Z,10
2023-02-13T04:54:41.804Z,10
2023-02-13T04:55:45.532Z,10
2023-02-13T04:56:48.665Z,10
2023-02-13T04:57:51.476Z,10
2023-02-13T04:58:54.484Z,10
2023-02-13T04:59:57.288Z,9.9
2023-02-13T05:01:01.417Z,9.9
2023-02-13T05:02:04.783Z,10
2023-02-13T05:03:08.237Z,10
2023-02-13T05:04:11.771Z,9.9
2023-02-13T05:05:15.041Z,9.9
2023-02-13T05:06:18.294Z,9.9
2023-02-13T05:07:21.816Z,9.9
2023-02-13T05:08:24.301Z,9.9
2023-02-13T05:09:27.588Z,9.9
2023-02-13T05:10:31.233Z,9.9
2023-02-13T05:11:34.745Z,9.8
2023-02-13T05:12:37.973Z,9.9
2023-02-13T05:13:42.033Z,9.9
2023-02-13T05:14:45.474Z,9.9
2023-02-13T05:15:48.159Z,9.9
2023-02-13T05:16:51.836Z,9.8
2023-02-13T05:17:54.825Z,9.8
2023-02-13T05:18:58.184Z,9.9
2023-02-13T05:20:00.900Z,9.8
2023-02-13T05:21:04.205Z,9.9
2023-02-13T05:22:07.403Z,9.8
2023-02-13T05:23:11.103Z,9.9
2023-02-13T05:24:14.372Z,9.9
2023-02-13T05:25:17.832Z,9.9
2023-02-13T05:26:20.933Z,9.9
2023-02-13T05:27:24.757Z,9.9
2023-02-13T05:28:28.294Z,9.9
2023-02-13T05:29:32.195Z,9.9
2023-02-13T05:30:35.084Z,9.9
2023-02-13T05:31:38.631Z,9.9
2023-02-13T05:32:42.104Z,9.9
2023-02-13T05:33:45.551Z,9.9
2023-02-13T05:34:48.915Z,9.8
2023-02-13T05:35:51.928Z,9.9
2023-02-13T05:36:55.285Z,9.9
2023-02-13T05:37:58.545Z,9.8
2023-02-13T05:39:01.952Z,9.9
2023-02-13T05:40:04.236Z,9.8
2023-02-13T05:41:07.252Z,9.8
2023-02-13T05:42:10.406Z,9.8
2023-02-13T05:43:14.190Z,9.8
2023-02-13T05:44:18.020Z,9.8
2023-02-13T05:45:22.153Z,9.8
2023-02-13T05:46:25.341Z,9.8
2023-02-13T05:47:29.266Z,9.8
2023-02-13T05:48:32.579Z,9.8
2023-02-13T05:49:35.492Z,9.8
2023-02-13T05:50:38.488Z,9.8
2023-02-13T05:51:41.923Z,9.8
2023-02-13T05:52:44.100Z,9.8
2023-02-13T05:53:47.710Z,9.8
2023-02-13T05:54:51.427Z,9.8
2023-02-13T05:55:54.534Z,9.8
2023-02-13T05:56:57.594Z,9.8
2023-02-13T05:58:01.241Z,9.7
2023-02-13T05:59:04.373Z,9.8
2023-02-13T06:00:07.448Z,9.7
2023-02-13T06:01:10.806Z,9.7
2023-02-13T06:02:13.931Z,9.7
2023-02-13T06:03:17.144Z,9.7
2023-02-13T06:04:20.204Z,9.7
2023-02-13T06:05:23.198Z,9.7
2023-02-13T06:06:25.158Z,9.7
2023-02-13T06:07:28.185Z,9.7
2023-02-13T06:08:31.532Z,9.7
2023-02-13T06:09:34.714Z,9.7
2023-02-13T06:10:38.434Z,9.7
2023-02-13T06:11:41.580Z,9.7
2023-02-13T06:12:45.241Z,9.7
2023-02-13T06:13:48.315Z,9.7
2023-02-13T06:14:51.957Z,9.7
2023-02-13T06:15:56.148Z,9.7
2023-02-13T06:16:59.432Z,9.7
2023-02-13T06:18:02.713Z,9.7
2023-02-13T06:19:06.464Z,9.7
2023-02-13T06:20:09.843Z,9.7
2023-02-13T06:21:12.997Z,9.7
2023-02-13T06:22:16.033Z,9.7
2023-02-13T06:23:19.398Z,9.7
2023-02-13T06:24:22.410Z,9.7
2023-02-13T06:25:25.546Z,9.7
2023-02-13T06:26:29.290Z,9.7
2023-02-13T06:27:32.557Z,9.8
2023-02-13T06:28:36.119Z,9.7
2023-02-13T06:29:39.741Z,9.7
2023-02-13T06:30:43.712Z,9.8
2023-02-13T06:31:47.597Z,9.7
2023-02-13T06:32:51.559Z,9.7
2023-02-13T06:33:54.125Z,9.7
2023-02-13T06:34:57.453Z,9.7
2023-02-13T06:36:01.227Z,9.7
2023-02-13T06:37:04.332Z,9.8
2023-02-13T06:38:07.206Z,9.8
2023-02-13T06:39:10.208Z,9.8
2023-02-13T06:40:13.478Z,9.8
2023-02-13T06:41:16.089Z,9.8
2023-02-13T06:42:20.173Z,9.8
2023-02-13T06:43:23.810Z,9.8
2023-02-13T06:44:26.748Z,9.8
2023-02-13T06:45:29.763Z,9.8
2023-02-13T06:46:33.508Z,9.8
2023-02-13T06:47:37.253Z,9.8
2023-02-13T06:48:40.346Z,9.8
2023-02-13T06:49:43.744Z,9.8
2023-02-13T06:50:46.888Z,9.8
2023-02-13T06:51:49.611Z,9.8
2023-02-13T06:52:52.913Z,9.8
2023-02-13T06:53:55.423Z,9.8
2023-02-13T06:54:58.879Z,9.8
2023-02-13T06:56:02.166Z,9.8
2023-02-13T06:57:04.894Z,9.8
2023-02-13T06:58:08.295Z,9.8
2023-02-13T06:59:11.765Z,9.8
2023-02-13T07:00:15.558Z,9.8
2023-02-13T07:01:17.856Z,9.8
2023-02-13T07:02:21.714Z,9.8
2023-02-13T07:03:25.235Z,9.8
2023-02-13T07:04:28.657Z,9.8
2023-02-13T07:05:30.918Z,9.8
2023-02-13T07:06:34.923Z,9.8
2023-02-13T07:07:38.387Z,9.8
2023-02-13T07:08:42.079Z,9.8
2023-02-13T07:09:45.069Z,9.8
2023-02-13T07:10:48.600Z,9.8
2023-02-13T07:11:52.704Z,9.8
2023-02-13T07:13:07.004Z,9.8
2023-02-13T07:14:09.880Z,9.8
2023-02-13T07:15:13.506Z,9.8
2023-02-13T07:16:16.958Z,9.8
2023-02-13T07:17:20.430Z,9.8
2023-02-13T07:18:23.721Z,9.8
2023-02-13T07:19:26.562Z,9.8
2023-02-13T07:20:30.959Z,9.8
2023-02-13T07:21:34.035Z,9.8
2023-02-13T07:22:37.404Z,9.7
2023-02-13T07:23:39.851Z,9.7
2023-02-13T07:24:43.844Z,9.7
2023-02-13T07:25:47.297Z,9.7
2023-02-13T07:26:50.085Z,9.7
2023-02-13T07:27:53.844Z,9.7
2023-02-13T07:29:12.886Z,9.7
2023-02-13T07:30:16.343Z,9.7
2023-02-13T07:31:19.728Z,9.7
2023-02-13T07:32:23.300Z,9.7
2023-02-13T07:33:26.781Z,9.7
2023-02-13T07:34:29.937Z,9.7
2023-02-13T07:35:33.494Z,9.7
2023-02-13T07:36:36.232Z,9.7
2023-02-13T07:37:39.382Z,9.7
2023-02-13T07:38:43.114Z,9.7
2023-02-13T07:39:46.444Z,9.7
2023-02-13T07:40:49.234Z,9.7
2023-02-13T07:41:52.253Z,9.7
2023-02-13T07:42:55.703Z,9.7
2023-02-13T07:43:58.425Z,9.7
2023-02-13T07:45:01.889Z,9.7
2023-02-13T07:46:05.685Z,9.7
2023-02-13T07:47:09.767Z,9.7
2023-02-13T07:48:12.922Z,9.8
2023-02-13T07:49:16.626Z,9.7
2023-02-13T07:50:20.141Z,9.7
2023-02-13T07:51:23.140Z,9.7
2023-02-13T07:52:26.926Z,9.7
2023-02-13T07:53:29.628Z,9.7
2023-02-13T07:54:32.696Z,9.7
2023-02-13T07:55:36.391Z,9.7
2023-02-13T07:56:39.397Z,9.7
2023-02-13T07:57:42.183Z,9.7
2023-02-13T07:58:44.415Z,9.7
2023-02-13T07:59:47.499Z,9.7
2023-02-13T08:00:50.904Z,9.7
2023-02-13T08:01:54.469Z,9.7
2023-02-13T08:02:58.048Z,9.7
2023-02-13T08:04:01.077Z,9.7
2023-02-13T08:05:04.404Z,9.7
2023-02-13T08:06:07.465Z,9.7
2023-02-13T08:07:11.156Z,9.7
2023-02-13T08:08:14.571Z,9.7
2023-02-13T08:09:18.051Z,9.7
2023-02-13T08:10:21.142Z,9.7
2023-02-13T08:11:24.221Z,9.7
2023-02-13T08:12:27.376Z,9.7
2023-02-13T08:13:30.462Z,9.7
2023-02-13T08:14:34.071Z,9.7
2023-02-13T08:15:37.152Z,9.7
2023-02-13T08:16:40.184Z,9.7
2023-02-13T08:17:44.024Z,9.8
2023-02-13T08:18:47.110Z,9.7
2023-02-13T08:19:50.558Z,9.7
2023-02-13T08:20:54.358Z,9.7
2023-02-13T08:21:57.433Z,9.7
2023-02-13T08:23:00.996Z,9.7
2023-02-13T08:24:04.383Z,9.7
2023-02-13T08:25:07.128Z,9.7
2023-02-13T08:26:10.287Z,9.8
2023-02-13T08:27:13.733Z,9.8
2023-02-13T08:28:17.070Z,9.7
2023-02-13T08:29:20.732Z,9.8
2023-02-13T08:30:23.502Z,9.8
2023-02-13T08:31:27.337Z,9.8
2023-02-13T08:32:31.527Z,9.8
2023-02-13T08:33:57.402Z,9.8
2023-02-13T08:35:00.782Z,9.8
2023-02-13T08:36:04.368Z,9.8
2023-02-13T08:37:07.635Z,9.8
2023-02-13T08:38:11.125Z,9.8
2023-02-13T08:39:14.494Z,9.8
2023-02-13T08:40:17.853Z,9.8
2023-02-13T08:41:21.777Z,9.8
2023-02-13T08:42:25.156Z,9.8
2023-02-13T08:43:28.501Z,9.8
2023-02-13T08:44:31.942Z,9.8
2023-02-13T08:45:34.919Z,9.8
2023-02-13T08:46:38.901Z,9.7
2023-02-13T08:47:42.745Z,9.8
2023-02-13T08:48:46.475Z,9.8
2023-02-13T08:49:50.182Z,9.8
2023-02-13T08:50:53.264Z,9.8
2023-02-13T08:51:56.727Z,9.8
2023-02-13T08:52:59.866Z,9.8
2023-02-13T08:54:03.005Z,9.7
2023-02-13T08:55:06.198Z,9.8
2023-02-13T08:56:09.611Z,9.7
2023-02-13T08:57:13.290Z,9.7
2023-02-13T08:58:16.266Z,9.8
2023-02-13T08:59:19.313Z,9.7
2023-02-13T09:00:22.237Z,9.7
2023-02-13T09:01:25.696Z,9.7
2023-02-13T09:02:30.138Z,9.7
2023-02-13T09:03:33.528Z,9.7
2023-02-13T09:04:37.547Z,9.8
2023-02-13T09:05:41.096Z,9.8
2023-02-13T09:06:45.209Z,9.8
2023-02-13T09:07:48.999Z,9.8
2023-02-13T09:08:52.065Z,9.8
2023-02-13T09:09:55.160Z,9.8
2023-02-13T09:10:58.915Z,9.8
2023-02-13T09:12:02.925Z,9.8
2023-02-13T09:13:06.696Z,9.8
2023-02-13T09:14:10.315Z,9.8
2023-02-13T09:15:14.006Z,9.8
2023-02-13T09:16:18.177Z,9.8
2023-02-13T09:17:21.580Z,9.9
2023-02-13T09:18:24.916Z,9.9
2023-02-13T09:19:28.334Z,9.9
2023-02-13T09:20:31.775Z,9.9
2023-02-13T09:21:38.702Z,9.9
2023-02-13T09:22:41.937Z,9.9
2023-02-13T09:23:45.757Z,9.9
2023-02-13T09:24:49.517Z,10
2023-02-13T09:25:53.263Z,9.9
2023-02-13T09:26:56.693Z,10
2023-02-13T09:28:00.427Z,10
2023-02-13T09:29:03.448Z,10
2023-02-13T09:30:07.182Z,10
2023-02-13T09:31:10.506Z,10
2023-02-13T09:32:14.073Z,10
2023-02-13T09:33:16.393Z,10
2023-02-13T09:34:20.022Z,10
2023-02-13T09:35:22.894Z,10
2023-02-13T09:36:25.390Z,10
2023-02-13T09:37:28.850Z,10
2023-02-13T09:38:31.905Z,10
2023-02-13T09:39:35.287Z,10
2023-02-13T09:40:38.516Z,10.1
2023-02-13T09:41:41.338Z,10.1
2023-02-13T09:42:44.203Z,10.1
2023-02-13T09:43:47.269Z,10.1
2023-02-13T09:44:50.204Z,10.1
2023-02-13T09:45:53.486Z,10.1
2023-02-13T09:46:57.088Z,10.1
2023-02-13T09:48:00.878Z,10.1
2023-02-13T09:49:04.596Z,10.1
2023-02-13T09:50:07.515Z,10.1
2023-02-13T09:51:11.321Z,10.1
2023-02-13T09:52:14.162Z,10.1
2023-02-13T09:53:17.618Z,10.1
2023-02-13T09:54:20.715Z,10.1
2023-02-13T09:55:24.584Z,10.1
2023-02-13T09:56:27.342Z,10.1
2023-02-13T09:57:30.772Z,10.1
2023-02-13T09:58:33.840Z,10.1
2023-02-13T09:59:36.929Z,10.1
2023-02-13T10:00:39.838Z,10.1
2023-02-13T10:01:43.590Z,10.1
2023-02-13T10:02:46.253Z,10.1
2023-02-13T10:03:49.620Z,10.1
2023-02-13T10:04:53.300Z,10.2
2023-02-13T10:05:58.749Z,10.2
2023-02-13T10:07:02.720Z,10.2
2023-02-13T10:08:05.842Z,10.2
2023-02-13T10:09:09.380Z,10.2
2023-02-13T10:10:13.106Z,10.2
2023-02-13T10:11:16.324Z,10.2
2023-02-13T10:12:19.496Z,10.2
2023-02-13T10:13:23.178Z,10.2
2023-02-13T10:14:27.230Z,10.2
2023-02-13T10:15:31.405Z,10.2
2023-02-13T10:16:35.038Z,10.2
2023-02-13T10:17:38.240Z,10.2
2023-02-13T10:18:41.255Z,10.2
2023-02-13T10:19:44.676Z,10.2
2023-02-13T10:20:47.828Z,10.2
2023-02-13T10:21:50.865Z,10.2
2023-02-13T10:22:54.354Z,10.2
2023-02-13T10:23:58.091Z,10.2
2023-02-13T10:25:01.485Z,10.2
2023-02-13T10:26:05.009Z,10.2
2023-02-13T10:27:08.756Z,10.2
2023-02-13T10:28:12.167Z,10.2
2023-02-13T10:29:15.706Z,10.2
2023-02-13T10:30:19.841Z,10.2
2023-02-13T10:31:23.769Z,10.2
2023-02-13T10:32:27.890Z,10.2
2023-02-13T10:33:31.624Z,10.2
2023-02-13T10:34:35.037Z,10.2
2023-02-13T10:35:38.785Z,10.2
2023-02-13T10:36:41.879Z,10.2
2023-02-13T10:37:45.240Z,10.2
2023-02-13T10:38:48.612Z,10.2
2023-02-13T10:39:51.726Z,10.2
2023-02-13T10:40:55.489Z,10.2
2023-02-13T10:41:58.964Z,10.2
2023-02-13T10:43:03.017Z,10.2
2023-02-13T10:44:07.080Z,10.2
2023-02-13T10:45:10.484Z,10.2
2023-02-13T10:46:13.123Z,10.2
2023-02-13T10:47:16.343Z,10.2
2023-02-13T10:48:19.780Z,10.2
2023-02-13T10:49:22.637Z,10.2
2023-02-13T10:50:25.769Z,10.2
2023-02-13T10:51:29.296Z,10.2
2023-02-13T10:52:32.764Z,10.2
2023-02-13T10:53:36.513Z,10.2
2023-02-13T10:54:40.548Z,10.2
2023-02-13T10:55:43.963Z,10.2
2023-02-13T10:56:47.735Z,10.2
2023-02-13T10:57:51.601Z,10.2
2023-02-13T10:58:54.839Z,10.3
2023-02-13T10:59:57.899Z,10.3
2023-02-13T11:01:01.018Z,10.3
2023-02-13T11:02:04.634Z,10.3
2023-02-13T11:03:08.465Z,10.3
2023-02-13T11:04:11.400Z,10.3
2023-02-13T11:05:15.275Z,10.3
2023-02-13T11:06:18.713Z,10.3
2023-02-13T11:07:21.352Z,10.3
2023-02-13T11:08:24.840Z,10.3
2023-02-13T11:09:27.938Z,10.3
2023-02-13T11:10:30.954Z,10.3
2023-02-13T11:11:34.956Z,10.4
2023-02-13T11:12:38.491Z,10.3
2023-02-13T11:13:41.676Z,10.3
2023-02-13T11:14:44.573Z,10.3
2023-02-13T11:15:48.497Z,10.3
2023-02-13T11:16:52.885Z,10.4
2023-02-13T11:17:55.926Z,10.4
2023-02-13T11:18:59.240Z,10.4
2023-02-13T11:20:02.307Z,10.4
2023-02-13T11:21:05.511Z,10.4
2023-02-13T11:22:08.579Z,10.4
2023-02-13T11:23:11.630Z,10.4
2023-02-13T11:24:15.283Z,10.4
2023-02-13T11:25:19.070Z,10.4
2023-02-13T11:26:22.453Z,10.4
2023-02-13T11:27:26.211Z,10.4
2023-02-13T11:28:30.052Z,10.4
2023-02-13T11:29:33.742Z,10.4
2023-02-13T11:30:36.973Z,10.4
2023-02-13T11:31:41.111Z,10.4
2023-02-13T11:32:44.989Z,10.4
2023-02-13T11:33:48.706Z,10.4
2023-02-13T11:34:51.798Z,10.4
2023-02-13T11:35:56.375Z,10.4
2023-02-13T11:37:00.892Z,10.3
2023-02-13T11:38:03.877Z,10.3
2023-02-13T11:39:07.242Z,10.3
2023-02-13T11:40:10.599Z,10.3
2023-02-13T11:41:13.603Z,10.4
2023-02-13T11:42:16.965Z,10.4
2023-02-13T11:43:20.616Z,10.4
2023-02-13T11:44:24.468Z,10.4
2023-02-13T11:45:27.141Z,10.4
2023-02-13T11:46:30.787Z,10.4
2023-02-13T11:47:34.874Z,10.4
2023-02-13T11:48:38.252Z,10.4
2023-02-13T11:49:41.327Z,10.5
2023-02-13T11:50:44.866Z,10.5
2023-02-13T11:51:48.046Z,10.5
2023-02-13T11:52:52.035Z,10.5
2023-02-13T11:53:55.315Z,10.5
2023-02-13T11:54:58.434Z,10.5
2023-02-13T11:56:01.532Z,10.5
2023-02-13T11:57:06.880Z,10.5
2023-02-13T11:58:10.422Z,10.5
2023-02-13T11:59:13.493Z,10.6
2023-02-13T12:00:17.281Z,10.6
2023-02-13T12:01:20.378Z,10.6
2023-02-13T12:02:24.114Z,10.6
2023-02-13T12:03:28.163Z,10.6
2023-02-13T12:04:32.863Z,10.7
2023-02-13T12:05:35.421Z,10.7
2023-02-13T12:06:38.201Z,10.7
2023-02-13T12:07:42.042Z,10.7
2023-02-13T12:08:46.081Z,10.7
2023-02-13T12:09:49.759Z,10.7
2023-02-13T12:10:52.510Z,10.7
2023-02-13T12:11:55.822Z,10.7
2023-02-13T12:12:58.979Z,10.7
2023-02-13T12:14:02.549Z,10.7
2023-02-13T12:15:06.332Z,10.7
2023-02-13T12:16:10.632Z,10.7
2023-02-13T12:17:32.788Z,10.7
2023-02-13T12:18:37.574Z,10.7
2023-02-13T12:19:41.272Z,10.7
2023-02-13T12:20:44.424Z,10.7
2023-02-13T12:21:47.500Z,10.7
2023-02-13T12:22:51.132Z,10.7
2023-02-13T12:23:56.187Z,10.7
2023-02-13T12:24:59.940Z,10.7
2023-02-13T12:26:03.375Z,10.6
2023-02-13T12:27:06.371Z,10.6
2023-02-13T12:28:09.918Z,10.6
2023-02-13T12:29:13.814Z,10.6
2023-02-13T12:30:17.499Z,10.6
2023-02-13T12:31:21.439Z,10.6
2023-02-13T12:32:24.977Z,10.6
2023-02-13T12:33:28.979Z,10.6
2023-02-13T12:34:32.727Z,10.6
2023-02-13T12:35:35.483Z,10.6
2023-02-13T12:36:38.558Z,10.6
2023-02-13T12:37:41.759Z,10.6
2023-02-13T12:38:45.445Z,10.6
2023-02-13T12:39:49.613Z,10.6
2023-02-13T12:40:53.411Z,10.6
2023-02-13T12:41:56.727Z,10.6
2023-02-13T12:43:00.132Z,10.6
2023-02-13T12:44:03.542Z,10.6
2023-02-13T12:45:06.993Z,10.6
2023-02-13T12:46:10.868Z,10.6
2023-02-13T12:47:14.592Z,10.6
2023-02-13T12:48:18.053Z,10.6
2023-02-13T12:49:21.460Z,10.6
2023-02-13T12:50:25.198Z,10.6
2023-02-13T12:51:30.153Z,10.6
2023-02-13T12:52:33.235Z,10.6
2023-02-13T12:53:36.628Z,10.7
2023-02-13T12:54:39.680Z,10.7
2023-02-13T12:55:43.124Z,10.7
2023-02-13T12:56:46.590Z,10.7
2023-02-13T12:57:50.278Z,10.7
2023-02-13T12:58:53.362Z,10.7
2023-02-13T12:59:56.667Z,10.7
2023-02-13T13:01:01.970Z,10.7
2023-02-13T13:02:05.247Z,10.7
2023-02-13T13:03:08.938Z,10.7
2023-02-13T13:04:12.018Z,10.7
2023-02-13T13:05:15.091Z,10.7
2023-02-13T13:06:18.936Z,10.7
2023-02-13T13:07:23.061Z,10.7
2023-02-13T13:08:26.186Z,10.7
2023-02-13T13:09:29.618Z,10.7
2023-02-13T13:10:32.644Z,10.7
2023-02-13T13:11:36.003Z,10.7
2023-02-13T13:12:39.358Z,10.7
2023-02-13T13:13:42.980Z,10.7
2023-02-13T13:14:46.447Z,10.6
2023-02-13T13:15:49.538Z,10.7
2023-02-13T13:16:52.992Z,10.6
2023-02-13T13:17:56.598Z,10.7
2023-02-13T13:19:00.088Z,10.7
2023-02-13T13:20:03.242Z,10.7
2023-02-13T13:21:05.672Z,10.7
2023-02-13T13:22:09.553Z,10.7
2023-02-13T13:23:13.296Z,10.7
2023-02-13T13:24:16.665Z,10.7
2023-02-13T13:25:19.224Z,10.7
2023-02-13T13:26:22.986Z,10.7
2023-02-13T13:27:25.746Z,10.7
2023-02-13T13:28:28.817Z,10.7
2023-02-13T13:29:32.060Z,10.7
2023-02-13T13:30:36.740Z,10.6
2023-02-13T13:31:40.230Z,10.6
2023-02-13T13:32:44.159Z,10.6
2023-02-13T13:33:47.844Z,10.7
2023-02-13T13:34:51.629Z,10.6
2023-02-13T13:35:55.451Z,10.6
2023-02-13T13:36:58.860Z,10.6
2023-02-13T13:38:02.883Z,10.5
2023-02-13T13:39:06.423Z,10.5
2023-02-13T13:40:09.794Z,10.5
2023-02-13T13:41:13.572Z,10.5
2023-02-13T13:42:16.694Z,10.5
2023-02-13T13:43:20.414Z,10.4
2023-02-13T13:44:23.396Z,10.4
2023-02-13T13:45:26.751Z,10.4
2023-02-13T13:46:30.121Z,10.4
2023-02-13T13:47:33.071Z,10.4
2023-02-13T13:48:36.197Z,10.4
2023-02-13T13:49:39.898Z,10.4
2023-02-13T13:50:43.626Z,10.4
2023-02-13T13:51:47.656Z,10.4
2023-02-13T13:52:51.099Z,10.5
2023-02-13T13:53:54.917Z,10.4
2023-02-13T13:54:58.729Z,10.5
2023-02-13T13:56:02.149Z,10.5
2023-02-13T13:57:05.494Z,10.5
2023-02-13T13:58:09.176Z,10.5
2023-02-13T13:59:12.140Z,10.5
2023-02-13T14:00:15.374Z,10.5
2023-02-13T14:01:18.601Z,10.5
2023-02-13T14:02:22.897Z,10.5
2023-02-13T14:03:26.072Z,10.5
2023-02-13T14:04:29.346Z,10.5
2023-02-13T14:05:32.517Z,10.5
2023-02-13T14:06:36.256Z,10.5
2023-02-13T14:07:39.355Z,10.5
2023-02-13T14:08:42.064Z,10.5
2023-02-13T14:09:45.591Z,10.5
2023-02-13T14:10:49.052Z,10.5
2023-02-13T14:11:52.231Z,10.5
2023-02-13T14:12:55.660Z,10.6
2023-02-13T14:13:58.572Z,10.6
2023-02-13T14:15:02.582Z,10.5
2023-02-13T14:16:06.801Z,10.5
2023-02-13T14:17:10.090Z,10.5
2023-02-13T14:18:13.949Z,10.5
2023-02-13T14:19:17.463Z,10.5
2023-02-13T14:20:20.904Z,10.5
2023-02-13T14:21:24.590Z,10.5
2023-02-13T14:22:28.496Z,10.5
2023-02-13T14:23:31.934Z,10.5
2023-02-13T14:24:35.662Z,10.5
2023-02-13T14:25:39.072Z,10.5